Time;durP1;ratioP1;P1;durP2;ratioP2;P2;SDS_P1;SDS_P2;PMS_P1;PMS_P2;Temp;Humidity;BMP_temperature;BMP_pressure;BME280_temperature;BME280_humidity;BME280_pressure;Samples;Min_cycle;Max_cycle;Signal;HPM_P1;HPM_P2
2022/03/19 00:00:09;;;;;;;2.17;1.70;;;;;;;23.95;18.81;103095.38;5064738;28;20098;-75
2022/03/19 00:02:35;;;;;;;1.80;1.50;;;;;;;23.97;18.55;103101.44;5064815;28;20051;-75
2022/03/19 00:05:00;;;;;;;2.20;1.75;;;;;;;23.95;18.79;103100.81;5065256;28;20467;-75
2022/03/19 00:07:27;;;;;;;2.00;1.73;;;;;;;23.94;18.64;103101.88;5081290;28;20051;-75
2022/03/19 00:09:52;;;;;;;1.70;1.27;;;;;;;23.91;18.72;103107.78;5085272;28;20028;-75
2022/03/19 00:12:18;;;;;;;1.60;1.50;;;;;;;23.95;18.68;103117.22;5084095;28;20025;-75
2022/03/19 00:14:43;;;;;;;2.17;1.50;;;;;;;23.93;18.51;103113.84;5084244;28;20028;-75
2022/03/19 00:17:10;;;;;;;1.50;1.40;;;;;;;23.94;18.80;103120.97;5084394;28;20052;-76
2022/03/19 00:19:37;;;;;;;2.13;1.90;;;;;;;23.93;18.56;103120.16;5084415;28;20043;-75
2022/03/19 00:22:02;;;;;;;1.73;1.33;;;;;;;23.92;18.55;103118.50;5083955;28;20024;-75
2022/03/19 00:24:28;;;;;;;1.75;1.65;;;;;;;23.92;18.73;103125.81;5083482;28;20031;-76
2022/03/19 00:26:53;;;;;;;1.67;1.58;;;;;;;23.94;18.74;103126.44;5063834;28;20559;-75
2022/03/19 00:29:18;;;;;;;1.55;1.45;;;;;;;23.94;18.81;103138.22;5082457;28;20028;-75
2022/03/19 00:31:44;;;;;;;1.88;1.50;;;;;;;23.93;18.71;103142.00;5081489;28;20430;-76
2022/03/19 00:34:09;;;;;;;1.63;1.50;;;;;;;23.92;18.67;103144.94;5082029;28;20025;-75
2022/03/19 00:36:35;;;;;;;1.85;1.50;;;;;;;23.92;18.80;103144.94;5081495;28;20471;-75
2022/03/19 00:39:00;;;;;;;1.60;1.50;;;;;;;23.92;18.80;103144.94;5081837;28;20070;-75
2022/03/19 00:41:26;;;;;;;1.75;1.40;;;;;;;23.91;18.85;103148.75;5082172;28;20031;-76
2022/03/19 00:43:51;;;;;;;1.50;1.40;;;;;;;23.91;18.58;103146.00;5082955;28;20176;-76
2022/03/19 00:46:19;;;;;;;1.50;1.40;;;;;;;23.91;18.89;103151.47;5084379;28;20025;-75
2022/03/19 00:48:44;;;;;;;1.60;1.50;;;;;;;23.91;18.83;103162.41;5084133;28;20024;-75
2022/03/19 00:51:10;;;;;;;1.60;1.50;;;;;;;23.90;18.80;103164.25;5085412;28;20032;-75
2022/03/19 00:53:35;;;;;;;1.63;1.40;;;;;;;23.89;18.74;103165.34;5084696;28;20104;-75
2022/03/19 00:56:00;;;;;;;1.52;1.42;;;;;;;23.90;18.57;103166.16;5064642;28;20016;-75
2022/03/19 00:58:26;;;;;;;1.60;1.50;;;;;;;23.90;18.58;103169.72;5082632;28;20138;-75
2022/03/19 01:00:51;;;;;;;1.40;1.30;;;;;;;23.90;18.74;103177.09;5081701;28;20074;-75
2022/03/19 01:03:17;;;;;;;1.52;1.40;;;;;;;23.90;18.59;103174.34;5082655;28;20081;-75
2022/03/19 01:05:42;;;;;;;1.30;1.20;;;;;;;23.89;18.54;103189.09;5083245;28;20028;-75
2022/03/19 01:08:08;;;;;;;1.50;1.38;;;;;;;23.89;18.74;103183.63;5083711;28;20036;-76
2022/03/19 01:10:34;;;;;;;1.40;1.30;;;;;;;23.88;18.55;103198.31;5083738;28;20467;-76
2022/03/19 01:12:59;;;;;;;1.40;1.30;;;;;;;23.85;18.58;103199.56;5083301;28;20029;-75
2022/03/19 01:15:24;;;;;;;1.42;1.33;;;;;;;23.88;18.74;103201.03;5082837;28;20043;-76
2022/03/19 01:17:50;;;;;;;1.48;1.38;;;;;;;23.87;18.56;103202.06;5083489;28;20024;-75
2022/03/19 01:20:15;;;;;;;1.30;1.20;;;;;;;23.87;18.50;103208.41;5083388;28;20033;-75
2022/03/19 01:22:42;;;;;;;1.70;1.38;;;;;;;23.85;18.62;103210.47;5082953;28;20040;-75
2022/03/19 01:25:08;;;;;;;1.58;1.48;;;;;;;23.87;18.66;103213.88;5082316;28;20020;-75
2022/03/19 01:27:34;;;;;;;1.50;1.40;;;;;;;23.83;18.41;103212.59;5081745;28;20036;-75
2022/03/19 01:29:59;;;;;;;1.73;1.40;;;;;;;23.86;18.33;103220.38;5082188;28;20039;-75
2022/03/19 01:32:24;;;;;;;1.20;1.10;;;;;;;23.86;18.63;103222.25;5082461;28;20040;-75
2022/03/19 01:34:50;;;;;;;1.40;1.30;;;;;;;23.88;18.55;103220.16;5082974;28;20031;-75
2022/03/19 01:37:15;;;;;;;1.38;1.13;;;;;;;23.85;18.55;103220.56;5082611;28;20087;-76
2022/03/19 01:39:41;;;;;;;1.23;1.08;;;;;;;23.84;18.37;103235.28;5082818;28;20028;-76
2022/03/19 01:42:06;;;;;;;1.40;1.30;;;;;;;23.85;18.43;103236.94;5084314;28;20020;-75
2022/03/19 01:44:32;;;;;;;0.80;0.80;;;;;;;23.86;18.22;103241.38;5066453;28;20103;-75
2022/03/19 01:47:04;;;;;;;1.27;1.17;;;;;;;23.85;18.28;103243.25;5084462;28;20024;-75
2022/03/19 01:49:31;;;;;;;1.20;1.10;;;;;;;23.83;18.05;103241.78;5069924;28;20343;-75
2022/03/19 01:51:57;;;;;;;1.30;1.20;;;;;;;23.83;18.17;103239.06;5088580;28;20036;-75
2022/03/19 01:54:27;;;;;;;1.20;1.10;;;;;;;23.85;18.09;103242.41;5088196;28;20029;-75
2022/03/19 01:56:53;;;;;;;1.30;1.20;;;;;;;23.86;18.08;103260.50;5070539;28;20028;-74
2022/03/19 01:59:18;;;;;;;1.30;1.08;;;;;;;23.81;18.28;103259.22;5089049;28;20035;-76
2022/03/19 02:01:43;;;;;;;1.20;1.10;;;;;;;23.81;18.30;103252.91;5070534;28;20116;-75
2022/03/19 02:04:09;;;;;;;1.33;1.23;;;;;;;23.80;18.24;103254.78;5071385;28;20028;-76
2022/03/19 02:06:35;;;;;;;0.93;0.93;;;;;;;23.80;18.21;103254.78;5088077;28;20441;-76
2022/03/19 02:09:00;;;;;;;1.30;1.20;;;;;;;23.81;18.04;103259.22;5088447;28;20124;-76
2022/03/19 02:11:26;;;;;;;1.27;1.17;;;;;;;23.81;18.15;103256.47;5089653;28;20051;-76
2022/03/19 02:13:52;;;;;;;1.30;1.20;;;;;;;23.79;18.26;103260.44;5089508;28;20028;-75
2022/03/19 02:16:17;;;;;;;1.30;1.13;;;;;;;23.81;17.94;103264.66;5088998;28;20469;-75
2022/03/19 02:18:43;;;;;;;1.20;1.10;;;;;;;23.81;17.96;103264.66;5070699;28;20451;-75
2022/03/19 02:21:08;;;;;;;0.95;0.90;;;;;;;23.82;17.97;103271.00;5089851;28;20074;-75
2022/03/19 02:26:17;;;;;;;0.95;0.90;;;;;;;23.83;17.70;103280.03;5088984;28;20035;-75
2022/03/19 02:28:43;;;;;;;1.13;1.02;;;;;;;23.78;17.90;103276.00;5089803;28;20037;-75
2022/03/19 02:31:08;;;;;;;1.40;1.30;;;;;;;23.77;17.95;103278.94;5089492;28;20024;-75
2022/03/19 02:33:34;;;;;;;1.15;1.05;;;;;;;23.80;17.98;103289.41;5072574;28;20028;-74
2022/03/19 02:35:59;;;;;;;1.10;1.00;;;;;;;23.79;17.78;103293.22;5089660;28;20027;-75
2022/03/19 02:38:24;;;;;;;1.20;1.10;;;;;;;23.79;17.84;103294.03;5089133;28;20024;-75
2022/03/19 02:40:50;;;;;;;1.08;1.00;;;;;;;23.79;18.01;103296.78;5088667;28;20033;-75
2022/03/19 02:43:15;;;;;;;1.02;1.00;;;;;;;23.79;17.79;103299.50;5088054;28;20024;-75
2022/03/19 02:45:40;;;;;;;1.10;1.00;;;;;;;23.79;17.81;103309.59;5088142;28;20027;-75
2022/03/19 02:48:06;;;;;;;1.23;1.13;;;;;;;23.78;17.85;103306.03;5068921;28;20170;-75
2022/03/19 02:50:33;;;;;;;1.15;1.05;;;;;;;23.76;17.93;103294.44;5086998;28;20025;-75
2022/03/19 02:52:59;;;;;;;1.05;1.02;;;;;;;23.79;17.62;103304.13;5087615;28;20028;-75
2022/03/19 02:55:25;;;;;;;1.15;1.05;;;;;;;23.78;17.92;103305.16;5088081;28;20032;-74
2022/03/19 02:57:50;;;;;;;0.98;0.93;;;;;;;23.77;17.95;103311.69;5088049;28;20025;-75
2022/03/19 03:00:16;;;;;;;1.08;1.00;;;;;;;23.77;17.83;103312.53;5087085;28;20032;-75
2022/03/19 03:02:41;;;;;;;0.90;0.90;;;;;;;23.76;17.89;103315.47;5086511;28;20032;-75
2022/03/19 03:05:08;;;;;;;1.13;1.05;;;;;;;23.74;17.87;103312.94;5069939;28;20029;-75
2022/03/19 03:07:33;;;;;;;1.00;1.00;;;;;;;23.73;17.89;103314.00;5070015;28;20139;-75
2022/03/19 03:09:59;;;;;;;1.00;1.00;;;;;;;23.70;17.87;103313.53;5087410;28;20029;-75
2022/03/19 03:12:25;;;;;;;1.30;1.10;;;;;;;23.77;17.92;103328.91;5087438;28;20036;-76
2022/03/19 03:14:50;;;;;;;1.10;1.00;;;;;;;23.74;17.76;103331.22;5087879;28;20032;-75
2022/03/19 03:17:16;;;;;;;0.82;0.82;;;;;;;23.74;17.82;103334.78;5087801;28;20027;-76
2022/03/19 03:19:41;;;;;;;1.13;1.02;;;;;;;23.73;17.64;103335.84;5069459;28;20055;-75
2022/03/19 03:22:08;;;;;;;0.88;0.88;;;;;;;23.75;17.76;103352.84;5070142;28;20028;-76
2022/03/19 03:24:34;;;;;;;0.90;0.90;;;;;;;23.75;17.52;103344.66;5087549;28;20024;-75
2022/03/19 03:26:59;;;;;;;0.80;0.80;;;;;;;23.74;17.62;103342.97;5087030;28;20029;-75
2022/03/19 03:29:25;;;;;;;0.82;0.82;;;;;;;23.75;17.71;103357.47;5086229;28;20385;-75
2022/03/19 03:31:50;;;;;;;0.90;0.90;;;;;;;23.74;17.21;103355.78;5086744;28;20096;-75
2022/03/19 03:34:15;;;;;;;0.70;0.70;;;;;;;23.75;17.45;103352.00;5085458;28;20463;-75
2022/03/19 03:36:41;;;;;;;0.90;0.90;;;;;;;23.73;17.40;103349.50;5085557;28;20025;-75
2022/03/19 03:39:06;;;;;;;0.85;0.85;;;;;;;23.73;17.29;103360.41;5085532;28;20025;-75
2022/03/19 03:41:32;;;;;;;0.70;0.70;;;;;;;23.69;17.37;103356.38;5085880;28;20025;-75
2022/03/19 03:43:57;;;;;;;0.95;0.80;;;;;;;23.73;17.32;103365.88;5087049;28;20043;-75
2022/03/19 03:46:22;;;;;;;0.93;0.90;;;;;;;23.71;17.24;103365.22;5086652;28;20046;-75
2022/03/19 03:48:48;;;;;;;0.80;0.80;;;;;;;23.72;17.23;103368.81;5086087;28;20025;-75
2022/03/19 03:51:13;;;;;;;0.95;0.85;;;;;;;23.74;17.45;103367.53;5086928;28;20033;-74
2022/03/19 03:53:39;;;;;;;0.90;0.90;;;;;;;23.73;17.29;103370.47;5069214;28;20081;-74
2022/03/19 03:56:04;;;;;;;0.80;0.80;;;;;;;23.74;17.50;103367.53;5087667;28;20036;-74
2022/03/19 03:58:30;;;;;;;1.08;0.98;;;;;;;23.72;17.26;103369.66;5088452;28;20024;-75
2022/03/19 04:00:56;;;;;;;0.80;0.80;;;;;;;23.68;17.22;103368.38;5088297;28;20032;-75
2022/03/19 04:03:21;;;;;;;0.70;0.70;;;;;;;23.69;17.32;103380.97;5088423;28;20024;-75
2022/03/19 04:05:46;;;;;;;0.80;0.80;;;;;;;23.71;17.53;103388.94;5088998;28;20067;-75
2022/03/19 04:08:12;;;;;;;0.80;0.80;;;;;;;23.70;17.38;103387.25;5088443;28;20028;-75
2022/03/19 04:10:37;;;;;;;0.95;0.95;;;;;;;23.66;17.20;103392.28;5088371;28;20040;-76
2022/03/19 04:13:03;;;;;;;0.80;0.80;;;;;;;23.70;17.31;103399.03;5088012;28;20056;-74
2022/03/19 04:15:28;;;;;;;0.70;0.70;;;;;;;23.70;17.35;103406.38;5086401;28;20032;-76
2022/03/19 04:17:54;;;;;;;0.95;0.85;;;;;;;23.70;17.08;103404.50;5085205;28;20036;-76
2022/03/19 04:20:21;;;;;;;0.80;0.80;;;;;;;23.67;17.18;103399.44;5085293;28;20032;-75
2022/03/19 04:22:47;;;;;;;0.82;0.82;;;;;;;23.68;17.35;103409.34;5085123;28;20025;-76
2022/03/19 04:25:16;;;;;;;0.70;0.70;;;;;;;23.67;17.02;103415.81;5083732;28;20051;-76
2022/03/19 04:27:43;;;;;;;0.90;0.90;;;;;;;23.67;17.04;103418.56;5084623;28;20035;-76
2022/03/19 04:30:11;;;;;;;0.75;0.75;;;;;;;23.66;17.25;103419.59;5084929;28;20024;-77
2022/03/19 04:32:43;;;;;;;0.80;0.80;;;;;;;23.68;17.15;103431.19;5084006;28;20029;-75
2022/03/19 04:37:59;;;;;;;0.80;0.80;;;;;;;23.67;17.08;103455.94;5087033;28;20043;-75
2022/03/19 04:40:24;;;;;;;0.77;0.70;;;;;;;23.67;16.85;103448.59;5085254;28;20039;-76
2022/03/19 04:42:50;;;;;;;0.70;0.70;;;;;;;23.68;16.87;103450.28;5085393;28;20025;-75
2022/03/19 04:45:15;;;;;;;0.70;0.70;;;;;;;23.65;16.82;103449.84;5086195;28;20035;-73
2022/03/19 04:47:41;;;;;;;0.90;0.90;;;;;;;23.67;16.99;103459.50;5086514;28;20074;-74
2022/03/19 04:50:07;;;;;;;0.70;0.70;;;;;;;23.66;17.06;103452.34;5087909;28;20027;-75
2022/03/19 04:52:33;;;;;;;0.93;0.93;;;;;;;23.66;17.02;103459.72;5088141;28;20459;-75
2022/03/19 04:55:00;;;;;;;0.80;0.80;;;;;;;23.62;17.02;103445.63;5069849;28;20028;-73
2022/03/19 04:57:27;;;;;;;0.70;0.70;;;;;;;23.66;17.04;103455.06;5070394;28;20037;-76
2022/03/19 04:59:52;;;;;;;0.82;0.70;;;;;;;23.64;17.00;103462.63;5087901;28;20040;-75
2022/03/19 05:02:18;;;;;;;0.70;0.70;;;;;;;23.66;16.86;103468.72;5084649;28;20028;-75
2022/03/19 05:04:44;;;;;;;0.70;0.70;;;;;;;23.64;17.26;103470.81;5080838;28;20085;-76
2022/03/19 05:07:10;;;;;;;0.80;0.80;;;;;;;23.65;16.80;103460.78;5079484;28;20044;-75
2022/03/19 05:12:31;;;;;;;1.20;0.70;;;;;;;23.63;16.99;103469.16;5078736;28;20031;-75
2022/03/19 05:14:57;;;;;;;0.70;0.70;;;;;;;23.66;16.87;103476.91;5079754;28;20040;-76
2022/03/19 05:17:23;;;;;;;0.70;0.70;;;;;;;23.66;16.76;103467.91;5079468;28;20134;-75
2022/03/19 05:19:48;;;;;;;0.70;0.70;;;;;;;23.66;17.02;103479.66;5079461;28;20040;-75
2022/03/19 05:22:13;;;;;;;0.70;0.70;;;;;;;23.60;16.94;103470.38;5061451;28;20020;-76
2022/03/19 05:24:39;;;;;;;0.70;0.70;;;;;;;23.64;16.95;103470.81;5080281;28;20486;-75
2022/03/19 05:27:04;;;;;;;0.75;0.75;;;;;;;23.63;16.93;103475.44;5080196;28;20043;-75
2022/03/19 05:29:32;;;;;;;0.70;0.70;;;;;;;23.64;16.65;103479.00;5081135;28;20020;-75
2022/03/19 05:31:58;;;;;;;0.75;0.70;;;;;;;23.63;16.79;103475.44;5080767;28;20107;-75
2022/03/19 05:34:30;;;;;;;0.80;0.80;;;;;;;23.62;16.65;103475.66;5061950;28;20067;-75
2022/03/19 05:36:56;;;;;;;0.60;0.60;;;;;;;23.64;16.55;103476.28;5046908;28;20036;-75
2022/03/19 05:39:21;;;;;;;0.73;0.73;;;;;;;23.64;16.61;103481.75;5080391;28;20078;-75
2022/03/19 05:41:47;;;;;;;0.75;0.75;;;;;;;23.62;16.63;103483.84;5080748;28;20032;-75
2022/03/19 05:44:12;;;;;;;0.60;0.60;;;;;;;23.63;16.63;103475.44;5081069;28;20032;-75
2022/03/19 05:46:37;;;;;;;0.80;0.80;;;;;;;23.64;16.68;103476.28;5079784;28;20028;-75
2022/03/19 05:49:03;;;;;;;0.70;0.70;;;;;;;23.63;16.62;103474.63;5080201;28;20435;-75
2022/03/19 05:51:28;;;;;;;0.65;0.65;;;;;;;23.61;16.85;103483.00;5080843;28;20020;-74
2022/03/19 05:53:54;;;;;;;0.65;0.65;;;;;;;23.62;16.76;103481.94;5080722;28;20024;-75
2022/03/19 05:56:19;;;;;;;0.60;0.60;;;;;;;23.62;16.81;103492.03;5063182;28;20421;-75
2022/03/19 05:58:45;;;;;;;0.80;0.80;;;;;;;23.60;16.55;103480.47;5081217;28;20024;-75
2022/03/19 06:01:10;;;;;;;0.70;0.70;;;;;;;23.61;16.48;103476.69;5081037;28;20021;-76
2022/03/19 06:03:35;;;;;;;0.63;0.63;;;;;;;23.62;16.72;103484.66;5081609;28;20025;-75
2022/03/19 06:06:01;;;;;;;0.60;0.60;;;;;;;23.62;16.49;103481.09;5081738;28;20048;-76
2022/03/19 06:08:27;;;;;;;0.45;0.45;;;;;;;23.58;16.66;103490.75;5082072;28;20017;-76
2022/03/19 06:10:52;;;;;;;0.70;0.70;;;;;;;23.61;16.55;103498.53;5081893;28;20047;-75
2022/03/19 06:13:18;;;;;;;0.60;0.60;;;;;;;23.61;16.55;103501.25;5082178;28;20488;-75
2022/03/19 06:15:43;;;;;;;0.65;0.65;;;;;;;23.60;16.62;103492.22;5082472;28;20031;-76
2022/03/19 06:18:08;;;;;;;0.75;0.75;;;;;;;23.61;16.67;103493.94;5080910;28;20028;-75
2022/03/19 06:20:36;;;;;;;0.60;0.60;;;;;;;23.60;16.59;103488.66;5081862;28;20032;-75
2022/03/19 06:23:02;;;;;;;0.57;0.57;;;;;;;23.61;16.79;103493.06;5082295;28;20044;-75
2022/03/19 06:25:27;;;;;;;0.70;0.70;;;;;;;23.60;16.50;103500.41;5082131;28;20037;-75
2022/03/19 06:27:53;;;;;;;0.93;0.88;;;;;;;23.64;16.52;103506.31;5082241;28;20402;-75
2022/03/19 06:30:18;;;;;;;0.60;0.60;;;;;;;23.62;16.70;103501.06;5082186;28;20024;-75
2022/03/19 06:32:43;;;;;;;0.70;0.70;;;;;;;23.59;16.75;103506.06;5082185;28;20029;-75
2022/03/19 06:35:10;;;;;;;0.70;0.70;;;;;;;23.56;16.51;103503.72;5085621;28;20025;-75
2022/03/19 06:37:35;;;;;;;0.80;0.80;;;;;;;23.60;16.46;103508.59;5086484;28;20028;-75
2022/03/19 06:40:06;;;;;;;0.80;0.80;;;;;;;23.59;16.61;103504.22;5087282;28;20489;-75
2022/03/19 06:42:35;;;;;;;0.60;0.60;;;;;;;23.60;16.49;103513.22;5087706;28;20029;-75
2022/03/19 06:45:00;;;;;;;0.70;0.70;;;;;;;23.60;16.74;103510.50;5087182;28;20024;-76
2022/03/19 06:47:25;;;;;;;0.68;0.68;;;;;;;23.63;16.55;103512.84;5086830;28;20040;-75
2022/03/19 06:49:51;;;;;;;0.75;0.70;;;;;;;23.61;16.79;103514.91;5087459;28;20052;-75
2022/03/19 06:52:16;;;;;;;0.65;0.65;;;;;;;23.62;16.95;103527.53;5087977;28;20027;-77
2022/03/19 06:54:42;;;;;;;0.88;0.80;;;;;;;23.64;16.60;103525.44;5089035;28;20466;-77
2022/03/19 06:57:07;;;;;;;0.60;0.60;;;;;;;23.65;16.78;103521.66;5089795;28;20039;-78
2022/03/19 06:59:33;;;;;;;0.80;0.80;;;;;;;23.65;16.54;103529.84;5089008;28;20024;-78
2022/03/19 07:01:58;;;;;;;0.93;0.77;;;;;;;23.66;16.68;103539.72;5089611;28;20071;-78
2022/03/19 07:04:24;;;;;;;0.70;0.70;;;;;;;23.68;16.66;103542.25;5088929;28;20032;-77
2022/03/19 07:06:49;;;;;;;0.60;0.60;;;;;;;23.65;16.74;103543.50;5089737;28;20051;-78
2022/03/19 07:09:15;;;;;;;0.82;0.70;;;;;;;23.65;16.60;103543.50;5088770;28;20052;-78
2022/03/19 07:11:40;;;;;;;0.75;0.75;;;;;;;23.69;16.85;103557.59;5087477;28;20031;-77
2022/03/19 07:14:05;;;;;;;0.65;0.65;;;;;;;23.69;16.60;103554.88;5088394;28;20029;-77
2022/03/19 07:16:31;;;;;;;0.70;0.70;;;;;;;23.69;16.69;103552.16;5089851;28;20024;-76
2022/03/19 07:18:56;;;;;;;0.60;0.60;;;;;;;23.70;16.84;103556.53;5089148;28;20050;-78
2022/03/19 07:21:22;;;;;;;0.65;0.65;;;;;;;23.70;16.75;103551.94;5089217;28;20531;-77
2022/03/19 07:23:48;;;;;;;1.00;0.60;;;;;;;23.70;17.11;103557.41;5090667;28;20028;-77
2022/03/19 07:26:13;;;;;;;0.68;0.68;;;;;;;23.72;17.03;103554.47;5088659;28;20025;-75
2022/03/19 07:28:40;;;;;;;0.63;0.63;;;;;;;23.74;16.92;103564.16;5087332;28;20037;-74
2022/03/19 07:31:06;;;;;;;0.60;0.60;;;;;;;23.73;16.74;103561.63;5085850;28;20024;-74
2022/03/19 07:33:34;;;;;;;0.70;0.70;;;;;;;23.76;16.70;103566.69;5085604;28;20051;-75
2022/03/19 07:36:01;;;;;;;0.63;0.63;;;;;;;23.76;16.96;103564.78;5083581;28;20463;-74
2022/03/19 07:38:26;;;;;;;0.60;0.60;;;;;;;23.75;16.63;103565.84;5084500;28;20029;-74
2022/03/19 07:43:36;;;;;;;0.47;0.47;;;;;;;23.76;16.84;103564.78;5084763;28;20043;-75
2022/03/19 07:46:02;;;;;;;0.60;0.60;;;;;;;23.76;16.80;103567.50;5083141;28;20032;-75
2022/03/19 07:48:27;;;;;;;0.70;0.70;;;;;;;23.78;16.83;103570.06;5084432;28;20040;-75
2022/03/19 07:50:53;;;;;;;0.73;0.73;;;;;;;23.79;16.72;103572.59;5083523;28;20021;-75
2022/03/19 07:53:18;;;;;;;0.57;0.57;;;;;;;23.79;16.88;103567.13;5083296;28;20054;-75
2022/03/19 07:55:43;;;;;;;0.52;0.50;;;;;;;23.76;16.80;103564.78;5083628;28;20024;-75
2022/03/19 07:58:10;;;;;;;0.75;0.70;;;;;;;23.80;16.75;103566.09;5084230;28;20032;-74
2022/03/19 08:00:35;;;;;;;0.70;0.70;;;;;;;23.81;17.05;103575.97;5065170;28;20032;-75
2022/03/19 08:03:01;;;;;;;0.50;0.50;;;;;;;23.81;16.78;103581.44;5083040;28;20028;-75
2022/03/19 08:05:26;;;;;;;0.60;0.60;;;;;;;23.81;17.03;103570.53;5082900;28;20024;-74
2022/03/19 08:07:52;;;;;;;0.70;0.70;;;;;;;23.84;16.89;103557.53;5082758;28;20111;-74
2022/03/19 08:10:18;;;;;;;0.52;0.52;;;;;;;23.84;16.71;103568.47;5083726;28;20035;-75
2022/03/19 08:12:44;;;;;;;0.80;0.80;;;;;;;23.82;16.96;103557.72;5084290;28;20021;-75
2022/03/19 08:15:10;;;;;;;0.63;0.63;;;;;;;23.86;16.69;103566.38;5067258;28;20047;-75
2022/03/19 08:17:36;;;;;;;0.60;0.60;;;;;;;23.85;16.85;103556.47;5083732;28;20035;-75
2022/03/19 08:20:02;;;;;;;0.70;0.70;;;;;;;23.79;17.03;103548.00;5084710;28;20031;-75
2022/03/19 08:22:28;;;;;;;0.57;0.57;;;;;;;23.87;16.90;103557.13;5066119;28;20395;-75
2022/03/19 08:24:53;;;;;;;0.50;0.50;;;;;;;23.88;16.91;103558.81;5084164;28;20063;-75
2022/03/19 08:27:19;;;;;;;0.68;0.68;;;;;;;23.88;16.69;103554.19;5084928;28;20055;-75
2022/03/19 08:29:44;;;;;;;0.63;0.50;;;;;;;23.90;16.64;103570.38;5083829;28;20029;-75
2022/03/19 08:32:10;;;;;;;0.50;0.50;;;;;;;23.88;16.89;103567.00;5084455;28;20028;-75
2022/03/19 08:34:36;;;;;;;0.63;0.63;;;;;;;23.91;16.71;103569.34;5083451;28;20024;-74
2022/03/19 08:37:01;;;;;;;0.70;0.70;;;;;;;23.92;16.71;103565.56;5083115;28;20028;-76
2022/03/19 08:42:11;;;;;;;0.52;0.52;;;;;;;23.97;16.78;103563.06;5083484;28;20092;-76
2022/03/19 08:44:36;;;;;;;0.70;0.70;;;;;;;23.94;16.80;103558.00;5083793;28;20032;-74
2022/03/19 08:47:02;;;;;;;0.60;0.60;;;;;;;23.96;16.78;103555.94;5084338;28;20039;-75
2022/03/19 08:49:27;;;;;;;0.60;0.60;;;;;;;23.94;16.68;103555.25;5084697;28;20590;-76
2022/03/19 08:51:52;;;;;;;0.60;0.60;;;;;;;23.95;16.78;103549.59;5084334;28;20020;-75
2022/03/19 08:54:18;;;;;;;0.60;0.60;;;;;;;23.93;16.73;103551.69;5084325;28;20474;-75
2022/03/19 08:56:45;;;;;;;0.60;0.60;;;;;;;23.97;16.71;103557.59;5083562;28;20032;-75
2022/03/19 08:59:10;;;;;;;0.60;0.60;;;;;;;23.98;16.63;103559.28;5084441;28;20050;-74
2022/03/19 09:01:36;;;;;;;0.70;0.70;;;;;;;24.00;16.53;103568.13;5083904;28;20028;-74
2022/03/19 09:04:02;;;;;;;0.50;0.50;;;;;;;24.01;16.53;103564.38;5083910;28;20032;-75
2022/03/19 09:06:28;;;;;;;0.70;0.70;;;;;;;24.02;16.59;103566.03;5084271;28;20229;-75
2022/03/19 09:08:53;;;;;;;0.60;0.60;;;;;;;24.02;16.84;103566.03;5083836;28;20030;-75
2022/03/19 09:11:19;;;;;;;0.50;0.50;;;;;;;24.06;16.66;103569.22;5083844;28;20028;-75
2022/03/19 09:13:48;;;;;;;0.40;0.40;;;;;;;24.06;16.40;103578.28;5084553;28;20081;-75
2022/03/19 09:16:13;;;;;;;0.45;0.45;;;;;;;24.07;16.60;103569.00;5084926;28;20036;-75
2022/03/19 09:18:39;;;;;;;0.60;0.55;;;;;;;24.04;16.92;103574.88;5085676;28;20029;-74
2022/03/19 09:21:05;;;;;;;0.50;0.50;;;;;;;24.07;16.76;103577.22;5085530;28;20118;-75
2022/03/19 09:23:30;;;;;;;0.60;0.60;;;;;;;24.11;16.68;103583.09;5085554;28;20102;-75
2022/03/19 09:25:55;;;;;;;0.50;0.50;;;;;;;24.10;16.30;103578.72;5086147;28;20024;-75
2022/03/19 09:28:21;;;;;;;0.70;0.70;;;;;;;24.10;16.56;103579.53;5085694;28;20029;-77
2022/03/19 09:30:46;;;;;;;0.40;0.40;;;;;;;24.12;16.51;103576.63;5084886;28;20047;-73
2022/03/19 09:33:12;;;;;;;0.50;0.50;;;;;;;24.11;16.32;103572.19;5086133;28;20389;-76
2022/03/19 09:35:37;;;;;;;0.60;0.60;;;;;;;24.12;16.31;103582.91;5085358;28;20157;-74
2022/03/19 09:38:02;;;;;;;0.50;0.50;;;;;;;24.14;16.43;103585.44;5085217;28;20020;-75
2022/03/19 09:40:28;;;;;;;0.65;0.60;;;;;;;24.14;16.09;103586.28;5084915;28;20036;-75
2022/03/19 09:42:54;;;;;;;0.50;0.50;;;;;;;24.15;16.04;103582.50;5085845;28;20031;-76
2022/03/19 09:45:21;;;;;;;0.50;0.50;;;;;;;24.15;16.19;103587.97;5086110;28;20028;-75
2022/03/19 09:47:46;;;;;;;0.55;0.50;;;;;;;24.08;16.12;103573.44;5086183;28;20031;-76
2022/03/19 09:50:12;;;;;;;0.60;0.50;;;;;;;24.15;15.85;103584.41;5085786;28;20028;-75
2022/03/19 09:52:37;;;;;;;0.40;0.40;;;;;;;24.17;15.92;103588.63;5085903;28;20028;-75
2022/03/19 09:55:03;;;;;;;0.47;0.47;;;;;;;24.17;15.85;103583.16;5068284;28;20024;-75
2022/03/19 09:57:29;;;;;;;0.40;0.40;;;;;;;24.16;15.78;103584.22;5086052;28;20028;-75
2022/03/19 09:59:54;;;;;;;0.50;0.50;;;;;;;24.18;15.88;103582.13;5084863;28;20485;-75
2022/03/19 10:02:20;;;;;;;0.50;0.50;;;;;;;24.19;15.85;103578.31;5087289;28;20535;-77
2022/03/19 10:04:45;;;;;;;0.52;0.52;;;;;;;24.19;15.71;103567.38;5092525;28;20028;-75
2022/03/19 10:09:56;;;;;;;0.40;0.40;;;;;;;24.21;15.77;103569.94;5080235;28;20067;-75
2022/03/19 10:12:23;;;;;;;0.40;0.40;;;;;;;24.19;15.57;103567.38;5097219;28;20024;-75
2022/03/19 10:14:53;;;;;;;0.40;0.40;;;;;;;24.17;15.68;103553.09;5097692;28;20040;-75
2022/03/19 10:17:34;;;;;;;0.35;0.35;;;;;;;24.22;15.51;103557.13;5096946;28;20024;-75
2022/03/19 10:20:04;;;;;;;0.57;0.50;;;;;;;24.18;15.42;103554.78;5098618;28;20019;-73
2022/03/19 10:22:30;;;;;;;0.40;0.40;;;;;;;24.19;15.43;103550.16;5098324;28;20063;-76
2022/03/19 10:25:05;;;;;;;0.77;0.55;;;;;;;24.19;15.33;103552.91;5097003;28;20004;-76
2022/03/19 10:27:34;;;;;;;0.40;0.40;;;;;;;24.19;15.22;103551.00;5096978;28;20051;-76
2022/03/19 10:30:02;;;;;;;0.43;0.43;;;;;;;24.15;15.09;103548.91;5097255;28;20051;-75
2022/03/19 10:32:28;;;;;;;0.40;0.40;;;;;;;24.22;15.17;103562.59;5097592;28;20055;-74
2022/03/19 10:34:54;;;;;;;0.30;0.30;;;;;;;24.19;15.03;103559.19;5096008;28;20048;-75
2022/03/19 10:37:37;;;;;;;0.30;0.30;;;;;;;24.21;15.09;103547.22;5094431;28;20025;-75
2022/03/19 10:40:04;;;;;;;0.40;0.40;;;;;;;24.21;14.82;103552.69;5093058;28;20024;-75
2022/03/19 10:42:40;;;;;;;0.40;0.40;;;;;;;24.17;14.66;103547.63;5093141;28;20025;-76
2022/03/19 10:45:07;;;;;;;0.40;0.30;;;;;;;24.08;14.68;103528.91;5093546;28;20076;-75
2022/03/19 10:47:43;;;;;;;0.30;0.30;;;;;;;24.19;14.82;103556.47;5091847;28;20016;-75
2022/03/19 10:50:18;;;;;;;0.50;0.50;;;;;;;24.17;14.63;103555.81;5091869;28;20029;-75
2022/03/19 10:52:43;;;;;;;0.30;0.30;;;;;;;24.10;14.70;103533.09;5092121;28;20035;-76
2022/03/19 10:55:09;;;;;;;0.30;0.30;;;;;;;24.16;14.53;103554.16;5074291;28;20032;-75
2022/03/19 10:57:35;;;;;;;0.70;0.40;;;;;;;24.13;14.53;103549.09;5091315;28;20024;-75
2022/03/19 11:00:00;;;;;;;0.30;0.30;;;;;;;24.13;14.71;103551.81;5090636;28;20036;-75
2022/03/19 11:02:27;;;;;;;0.55;0.40;;;;;;;24.14;14.63;103548.03;5090342;28;20021;-75
2022/03/19 11:04:53;;;;;;;0.40;0.40;;;;;;;24.15;14.73;103546.16;5091427;28;20402;-75
2022/03/19 11:07:18;;;;;;;0.40;0.40;;;;;;;24.16;14.51;103543.22;5073231;28;20044;-76
2022/03/19 11:09:43;;;;;;;0.30;0.30;;;;;;;24.10;14.38;103529.53;5072548;28;20020;-75
2022/03/19 11:12:09;;;;;;;0.30;0.30;;;;;;;24.13;14.54;103540.91;5072778;28;20025;-76
2022/03/19 11:14:35;;;;;;;0.73;0.47;;;;;;;24.13;14.41;103535.44;5073220;28;20020;-75
2022/03/19 11:17:25;;;;;;;0.40;0.40;;;;;;;24.19;14.38;103533.75;5071724;28;20111;-76
2022/03/19 11:20:01;;;;;;;0.30;0.30;;;;;;;24.17;14.25;103525.78;5090110;28;20032;-74
2022/03/19 11:22:30;;;;;;;0.40;0.40;;;;;;;24.15;14.22;103521.56;5090108;28;20031;-75
2022/03/19 11:25:02;;;;;;;0.50;0.40;;;;;;;24.11;14.34;103512.94;5072562;28;20032;-74
2022/03/19 11:27:29;;;;;;;0.40;0.40;;;;;;;24.13;14.33;103508.09;5056750;28;20035;-75
2022/03/19 11:29:57;;;;;;;0.40;0.40;;;;;;;24.12;14.08;103502.84;5073092;28;20021;-74
2022/03/19 11:32:23;;;;;;;0.45;0.40;;;;;;;24.14;14.11;103498.84;5089982;28;20048;-75
2022/03/19 11:34:49;;;;;;;0.40;0.40;;;;;;;24.12;13.98;103498.22;5089638;28;20029;-75